Terminal Aerodrome Forecast
Issued by NWS

Home | Current Version | Previous Version | Text Only | Print | Product List | Glossary On
Versions: 1 2 3 4 5 6 7 8 9 10 11 12 13 14 15 16
000
FTUS41 KBTV 181002 AAA
TAFMPV
TAF AMD
KMPV 181002Z 1810/1906 00000KT P6SM VCSH OVC060
      TEMPO 1811/1815 3SM RA BR OVC025
     FM181500 16005KT P6SM VCSH BKN030
     FM181900 17008KT P6SM BKN030
     FM190100 17006KT P6SM VCSH BKN030=

USA.gov is the U.S. government's official web portal to all federal, state and local government web resources and services.